Time;durP1;ratioP1;P1;durP2;ratioP2;P2;SDS_P1;SDS_P2;PMS_P1;PMS_P2;Temp;Humidity;BMP_temperature;BMP_pressure;BME280_temperature;BME280_humidity;BME280_pressure;Samples;Min_cycle;Max_cycle;Signal;HPM_P1;HPM_P2
2022/11/08 00:03:01;;;;;;;5.78;0.15;;;;;;;11.20;100.00;101265.25;10476859;28;20562;-77
2022/11/08 00:18:43;;;;;;;0.20;0.05;;;;;;;11.18;100.00;101269.47;10460049;28;20045;-77
2022/11/08 00:23:46;;;;;;;0.08;0.08;;;;;;;11.14;100.00;101265.03;10458627;28;20132;-77
2022/11/08 00:28:47;;;;;;;0.55;0.32;;;;;;;11.18;100.00;101266.91;10459438;28;20090;-77
2022/11/08 00:33:49;;;;;;;0.10;0.10;;;;;;;11.20;100.00;101270.41;10497228;28;20500;-77
2022/11/08 00:38:50;;;;;;;0.03;0.03;;;;;;;11.19;100.00;101269.50;10500525;28;20061;-76
2022/11/08 00:43:52;;;;;;;0.00;0.00;;;;;;;11.25;100.00;101264.53;10499324;28;20492;-77
2022/11/08 00:48:53;;;;;;;0.10;0.10;;;;;;;11.38;100.00;101260.59;10499001;28;20543;-77
2022/11/08 00:53:55;;;;;;;0.35;0.25;;;;;;;11.21;100.00;101246.34;10498524;28;20131;-77
2022/11/08 00:58:57;;;;;;;0.73;0.10;;;;;;;11.17;100.00;101244.50;10498489;28;20135;-77
2022/11/08 01:03:58;;;;;;;0.32;0.10;;;;;;;11.10;100.00;101257.22;10461284;28;20075;-77
2022/11/08 01:09:00;;;;;;;0.00;0.00;;;;;;;11.06;100.00;101257.94;10457991;28;20059;-76
2022/11/08 01:14:02;;;;;;;0.25;0.25;;;;;;;10.91;100.00;101265.22;10456658;28;20511;-79
2022/11/08 01:19:03;;;;;;;0.00;0.00;;;;;;;10.88;100.00;101262.56;10457708;28;20052;-77
2022/11/08 01:24:05;;;;;;;0.05;0.05;;;;;;;10.93;100.00;101271.31;10457519;28;20064;-77
2022/11/08 01:29:07;;;;;;;0.20;0.10;;;;;;;11.09;100.00;101263.22;10457336;28;20084;-77
2022/11/08 01:34:08;;;;;;;1.55;1.17;;;;;;;11.00;100.00;101247.47;10456057;28;20040;-76
2022/11/08 01:39:10;;;;;;;0.00;0.00;;;;;;;11.05;100.00;101245.91;10439086;28;20083;-77
2022/11/08 01:45:11;;;;;;;0.00;0.00;;;;;;;10.88;100.00;101247.09;10456881;28;20059;-76
2022/11/08 01:50:17;;;;;;;0.10;0.10;;;;;;;10.89;100.00;101243.72;10457101;28;20392;-79
2022/11/08 01:55:27;;;;;;;0.10;0.10;;;;;;;10.86;100.00;101236.75;10455656;28;20068;-78
2022/11/08 02:00:29;;;;;;;;;;;;;;;10.82;100.00;101226.31;10456873;28;20049;-76
2022/11/08 02:05:30;;;;;;;0.22;0.22;;;;;;;10.76;100.00;101217.53;10455312;28;20019;-77
2022/11/08 02:10:37;;;;;;;0.60;0.28;;;;;;;10.58;100.00;101214.41;10456420;28;20081;-76
2022/11/08 02:15:39;;;;;;;0.45;0.20;;;;;;;10.71;100.00;101208.81;10460554;28;20144;-77
2022/11/08 02:20:49;;;;;;;0.32;0.32;;;;;;;10.64;100.00;101204.28;10472793;28;20041;-77
2022/11/08 02:25:52;;;;;;;1.13;0.20;;;;;;;10.57;100.00;101202.34;10455024;28;20075;-77
2022/11/08 02:30:53;;;;;;;0.20;0.20;;;;;;;10.60;100.00;101190.44;10455625;28;20048;-77
2022/11/08 02:35:55;;;;;;;0.20;0.20;;;;;;;10.62;100.00;101185.34;10454349;28;20091;-77
2022/11/08 02:40:57;;;;;;;0.52;0.20;;;;;;;10.63;100.00;101184.50;10420020;28;20052;-77
2022/11/08 02:45:59;;;;;;;0.10;0.10;;;;;;;10.59;100.00;101175.81;10468921;28;20492;-76
2022/11/08 02:51:00;;;;;;;0.47;0.32;;;;;;;10.51;100.00;101168.69;10504177;28;20072;-77
2022/11/08 02:56:02;;;;;;;0.10;0.10;;;;;;;10.37;100.00;101158.84;10470386;28;20128;-76
2022/11/08 03:01:03;;;;;;;1.13;1.02;;;;;;;10.47;100.00;101157.41;10462885;28;20472;-77
2022/11/08 03:06:05;;;;;;;0.05;0.05;;;;;;;10.45;100.00;101141.94;10462952;28;20064;-76
2022/11/08 03:11:07;;;;;;;0.00;0.00;;;;;;;10.60;100.00;101135.47;10434679;28;20080;-78
2022/11/08 03:16:08;;;;;;;0.85;0.30;;;;;;;10.67;100.00;101129.69;10474762;28;20094;-76
2022/11/08 03:21:10;;;;;;;0.93;0.85;;;;;;;10.63;100.00;101114.94;10460875;28;20084;-77
2022/11/08 03:26:11;;;;;;;0.10;0.10;;;;;;;10.66;100.00;101103.84;10462452;28;20076;-77
2022/11/08 03:31:13;;;;;;;0.00;0.00;;;;;;;10.57;100.00;101097.63;10461877;28;20041;-76
2022/11/08 03:36:14;;;;;;;0.43;0.08;;;;;;;10.53;100.00;101094.91;10461379;28;20133;-76
2022/11/08 03:41:16;;;;;;;0.00;0.00;;;;;;;10.65;100.00;101089.25;10485993;28;20074;-78
2022/11/08 03:46:17;;;;;;;0.25;0.13;;;;;;;10.59;100.00;101074.47;10463315;28;20091;-77
2022/11/08 03:51:19;;;;;;;0.45;0.45;;;;;;;10.59;100.00;101069.31;10459801;28;20481;-76
2022/11/08 03:56:20;;;;;;;0.00;0.00;;;;;;;10.46;100.00;101057.78;10460707;28;20041;-77
2022/11/08 04:01:22;;;;;;;0.00;0.00;;;;;;;10.52;100.00;101057.94;10458971;28;20404;-77
2022/11/08 04:06:24;;;;;;;0.25;0.10;;;;;;;10.67;100.00;101036.03;10493498;28;20381;-78
2022/11/08 04:16:45;;;;;;;;;;;;;;;10.61;100.00;101011.00;10472840;28;20064;-79
2022/11/08 04:21:49;;;;;;;0.00;0.00;;;;;;;10.72;100.00;100988.94;10470283;28;19970;-79
2022/11/08 04:26:51;;;;;;;0.10;0.10;;;;;;;10.77;100.00;100955.56;10471281;28;20488;-77
2022/11/08 04:31:52;;;;;;;0.10;0.10;;;;;;;10.82;100.00;100945.38;10456087;28;20072;-77
2022/11/08 04:36:54;;;;;;;0.80;0.73;;;;;;;10.61;100.00;100934.56;10455907;28;20110;-77
2022/11/08 04:41:55;;;;;;;0.08;0.08;;;;;;;10.60;100.00;100931.94;10459084;28;20472;-77
2022/11/08 04:47:02;;;;;;;0.00;0.00;;;;;;;10.62;100.00;100914.81;10461142;28;20060;-76
2022/11/08 04:52:04;;;;;;;0.20;0.08;;;;;;;10.61;100.00;100910.50;10465568;28;20096;-77
2022/11/08 04:57:05;;;;;;;2.72;0.10;;;;;;;10.67;100.00;100890.03;10450030;28;20124;-77
2022/11/08 05:02:07;;;;;;;1.27;0.30;;;;;;;10.68;100.00;100896.94;10457152;28;20079;-77
2022/11/08 05:07:09;;;;;;;0.20;0.10;;;;;;;10.63;100.00;100890.78;10440257;28;20584;-79
2022/11/08 05:12:11;;;;;;;0.00;0.00;;;;;;;10.69;100.00;100890.06;10484394;28;20072;-79
2022/11/08 05:17:12;;;;;;;2.53;2.20;;;;;;;10.70;100.00;100887.53;10457814;28;20069;-77
2022/11/08 05:27:34;;;;;;;0.47;0.35;;;;;;;10.72;100.00;100891.03;10450708;28;20044;-78
2022/11/08 05:32:37;;;;;;;0.52;0.43;;;;;;;10.80;100.00;100865.44;10472091;28;20133;-77
2022/11/08 05:37:40;;;;;;;1.67;0.70;;;;;;;10.76;100.00;100861.91;10465616;28;20045;-80
2022/11/08 05:42:42;;;;;;;0.38;0.38;;;;;;;10.75;100.00;100849.88;10450191;28;20053;-77
2022/11/08 05:47:44;;;;;;;0.00;0.00;;;;;;;10.71;100.00;100842.91;10468519;28;20404;-77
2022/11/08 05:52:46;;;;;;;0.00;0.00;;;;;;;10.64;100.00;100843.56;10455582;28;20099;-78
2022/11/08 05:57:48;;;;;;;0.43;0.13;;;;;;;10.61;100.00;100831.50;10455241;28;20060;-77
2022/11/08 06:02:49;;;;;;;0.10;0.10;;;;;;;10.59;100.00;100822.00;10455212;28;20386;-76
2022/11/08 06:07:53;;;;;;;0.05;0.05;;;;;;;10.59;100.00;100807.41;10455063;28;20045;-78
2022/11/08 06:12:59;;;;;;;0.45;0.40;;;;;;;10.58;100.00;100815.09;10454942;28;20072;-77
2022/11/08 06:25:01;;;;;;;0.25;0.17;;;;;;;10.47;100.00;100802.81;10464092;28;20135;-76
2022/11/08 06:30:04;;;;;;;0.50;0.50;;;;;;;10.57;100.00;100805.63;10462586;28;20500;-77
2022/11/08 06:35:05;;;;;;;0.10;0.10;;;;;;;10.48;100.00;100799.41;10480298;28;20090;-76
2022/11/08 06:40:08;;;;;;;0.28;0.28;;;;;;;10.63;100.00;100803.19;10462569;28;20045;-76
2022/11/08 06:45:10;;;;;;;1.13;0.32;;;;;;;10.45;100.00;100809.66;10462552;28;20100;-77
2022/11/08 06:50:11;;;;;;;0.25;0.25;;;;;;;10.58;100.00;100804.78;10462280;28;20504;-78
2022/11/08 06:55:13;;;;;;;0.00;0.00;;;;;;;10.54;100.00;100800.38;10463473;28;20044;-77
2022/11/08 07:00:15;;;;;;;0.30;0.30;;;;;;;10.70;100.00;100799.91;10461860;28;20118;-77
2022/11/08 07:05:17;;;;;;;0.00;0.00;;;;;;;10.66;100.00;100790.38;10463513;28;20048;-78
2022/11/08 07:10:23;;;;;;;1.02;0.50;;;;;;;10.87;100.00;100778.84;10482437;28;20040;-78
2022/11/08 07:15:27;;;;;;;0.00;0.00;;;;;;;11.01;100.00;100774.00;10467411;28;20041;-76
2022/11/08 07:21:07;;;;;;;0.98;0.03;;;;;;;11.05;100.00;100755.16;10461215;28;20051;-76
2022/11/08 07:26:16;;;;;;;0.00;0.00;;;;;;;11.11;100.00;100730.41;10457865;28;20125;-77
2022/11/08 07:31:22;;;;;;;0.03;0.03;;;;;;;11.21;100.00;100725.41;10419556;28;20107;-78
2022/11/08 07:36:24;;;;;;;0.08;0.08;;;;;;;11.29;100.00;100708.38;10418624;28;20099;-76
2022/11/08 07:41:25;;;;;;;0.03;0.03;;;;;;;11.38;100.00;100698.25;10425792;28;20053;-76
2022/11/08 07:46:27;;;;;;;0.10;0.10;;;;;;;11.42;100.00;100673.38;10459802;28;20041;-76
2022/11/08 07:51:28;;;;;;;0.45;0.05;;;;;;;11.40;100.00;100681.09;10460093;28;20049;-77
2022/11/08 07:56:30;;;;;;;0.03;0.03;;;;;;;11.63;100.00;100669.44;10460728;28;20037;-77
2022/11/08 08:01:32;;;;;;;0.38;0.30;;;;;;;11.84;100.00;100656.91;10460900;28;20095;-76
2022/11/08 08:06:34;;;;;;;0.10;0.10;;;;;;;11.88;100.00;100653.56;10447725;28;20041;-76
2022/11/08 08:18:05;;;;;;;2.97;0.32;;;;;;;12.40;100.00;100647.50;10425572;28;20041;-78
2022/11/08 08:23:07;;;;;;;0.30;0.22;;;;;;;12.50;100.00;100628.69;10459766;28;20385;-78
2022/11/08 08:28:09;;;;;;;0.10;0.10;;;;;;;12.33;100.00;100630.16;10458463;28;20040;-77
2022/11/08 08:33:14;;;;;;;1.60;0.60;;;;;;;12.36;100.00;100613.00;10457879;28;20079;-78
2022/11/08 08:38:30;;;;;;;0.00;0.00;;;;;;;12.18;100.00;100613.59;10459014;28;20115;-77
2022/11/08 08:43:32;;;;;;;0.10;0.00;;;;;;;12.17;100.00;100618.75;10450098;28;20041;-78
2022/11/08 08:48:34;;;;;;;0.00;0.00;;;;;;;12.34;100.00;100612.09;10444285;28;20041;-78
2022/11/08 08:53:36;;;;;;;0.00;0.00;;;;;;;12.41;100.00;100599.25;10417115;28;20497;-77
2022/11/08 08:58:37;;;;;;;0.10;0.10;;;;;;;12.26;100.00;100618.88;10426665;28;20107;-76
2022/11/08 09:03:39;;;;;;;0.10;0.10;;;;;;;12.34;100.00;100601.75;10457056;28;20071;-77
2022/11/08 09:08:41;;;;;;;2.13;0.90;;;;;;;12.45;100.00;100613.97;10458009;28;20124;-75
2022/11/08 09:13:42;;;;;;;0.00;0.00;;;;;;;12.50;100.00;100614.88;10456304;28;20389;-77
2022/11/08 09:19:04;;;;;;;2.90;0.30;;;;;;;12.62;100.00;100616.78;10456432;28;20087;-77
2022/11/08 09:24:06;;;;;;;0.20;0.20;;;;;;;12.77;100.00;100608.34;10440515;28;20049;-78
2022/11/08 09:29:07;;;;;;;0.00;0.00;;;;;;;12.81;100.00;100598.03;10453476;28;20071;-79
2022/11/08 09:34:09;;;;;;;0.13;0.13;;;;;;;12.83;100.00;100598.09;10459468;28;20059;-76
2022/11/08 09:39:11;;;;;;;0.50;0.50;;;;;;;12.75;100.00;100599.69;10460310;28;20091;-77
2022/11/08 09:44:47;;;;;;;0.00;0.00;;;;;;;12.74;100.00;100608.31;10455841;28;20073;-75
2022/11/08 09:50:00;;;;;;;0.00;0.00;;;;;;;12.79;100.00;100588.53;10456316;28;20045;-76
2022/11/08 09:56:07;;;;;;;1.65;0.20;;;;;;;12.76;100.00;100593.69;10437634;28;20451;-76
2022/11/08 10:01:12;;;;;;;0.00;0.00;;;;;;;12.96;100.00;100586.13;10465209;28;20048;-75
2022/11/08 10:06:27;;;;;;;0.00;0.00;;;;;;;12.99;100.00;100575.84;10424250;28;20073;-76
2022/11/08 10:11:57;;;;;;;0.22;0.22;;;;;;;12.96;100.00;100581.84;10460218;28;20076;-76
2022/11/08 10:24:17;;;;;;;0.65;0.15;;;;;;;12.94;100.00;100580.97;10427259;28;20037;-76
2022/11/08 10:29:31;;;;;;;0.63;0.30;;;;;;;13.08;100.00;100588.88;10454209;28;20045;-75
2022/11/08 10:34:42;;;;;;;0.65;0.43;;;;;;;13.02;100.00;100592.25;10422761;28;20046;-79
2022/11/08 10:40:00;;;;;;;0.35;0.28;;;;;;;13.36;100.00;100580.53;10450104;28;20032;-76
2022/11/08 10:45:02;;;;;;;0.00;0.00;;;;;;;13.41;100.00;100568.53;10465999;28;20045;-76
2022/11/08 10:50:16;;;;;;;0.00;0.00;;;;;;;13.55;100.00;100572.09;10464005;28;20041;-76
2022/11/08 10:55:39;;;;;;;0.28;0.13;;;;;;;13.32;100.00;100569.28;10456856;28;20084;-75
2022/11/08 11:00:40;;;;;;;0.10;0.10;;;;;;;13.30;100.00;100570.97;10455365;28;20091;-75
2022/11/08 11:05:56;;;;;;;0.20;0.15;;;;;;;13.27;100.00;100574.41;10455400;28;20041;-75
2022/11/08 11:11:21;;;;;;;0.00;0.00;;;;;;;13.40;100.00;100585.78;10445369;28;20049;-76
2022/11/08 11:16:26;;;;;;;0.45;0.32;;;;;;;13.49;100.00;100587.56;10448933;28;20045;-76
2022/11/08 11:21:35;;;;;;;0.10;0.10;;;;;;;13.55;100.00;100586.75;10468325;28;20106;-76
2022/11/08 11:26:55;;;;;;;0.03;0.03;;;;;;;13.67;100.00;100588.56;10479397;28;20044;-74
2022/11/08 11:32:46;;;;;;;0.47;0.28;;;;;;;13.67;100.00;100580.78;10449108;28;20049;-76
2022/11/08 11:37:48;;;;;;;;;;;;;;;13.51;100.00;100579.81;10460598;28;20404;-77
2022/11/08 11:43:01;;;;;;;0.00;0.00;;;;;;;13.43;100.00;100595.28;10465276;28;20387;-76
2022/11/08 11:48:13;;;;;;;0.15;0.08;;;;;;;13.44;100.00;100589.25;10469102;28;20049;-76
2022/11/08 11:53:21;;;;;;;0.15;0.15;;;;;;;13.45;100.00;100585.78;10448143;28;20050;-76
2022/11/08 11:58:35;;;;;;;0.15;0.15;;;;;;;13.51;100.00;100582.41;10425285;28;20119;-76
2022/11/08 12:03:56;;;;;;;1.58;0.20;;;;;;;13.87;100.00;100571.47;10437713;28;20057;-75
2022/11/08 12:09:27;;;;;;;0.40;0.20;;;;;;;14.69;100.00;100548.59;10457425;28;20446;-75
2022/11/08 12:14:46;;;;;;;0.98;0.57;;;;;;;14.49;100.00;100526.88;10467257;28;20045;-76
2022/11/08 12:20:17;;;;;;;0.43;0.30;;;;;;;14.74;100.00;100499.34;10442094;28;20045;-75
2022/11/08 12:25:37;;;;;;;0.30;0.00;;;;;;;14.17;100.00;100479.25;10458460;28;20055;-75
2022/11/08 12:30:47;;;;;;;0.00;0.00;;;;;;;14.19;100.00;100487.88;10442040;28;20045;-75
2022/11/08 12:36:04;;;;;;;1.92;0.22;;;;;;;14.42;100.00;100474.16;10421730;28;20041;-75
2022/11/08 12:41:58;;;;;;;0.20;0.10;;;;;;;14.18;100.00;100491.38;10448373;28;20060;-75
2022/11/08 12:47:52;;;;;;;3.88;0.47;;;;;;;13.98;100.00;100516.28;10397259;28;20052;-75
2022/11/08 12:52:54;;;;;;;0.95;0.88;;;;;;;14.06;100.00;100497.34;10457767;28;20041;-76
2022/11/08 12:57:59;;;;;;;0.65;0.47;;;;;;;14.34;100.00;100491.41;10457008;28;20478;-75
2022/11/08 13:03:12;;;;;;;0.10;0.10;;;;;;;14.78;100.00;100497.63;10457804;28;20037;-75
2022/11/08 13:08:26;;;;;;;0.65;0.30;;;;;;;14.51;100.00;100494.94;10458453;28;20045;-75
2022/11/08 13:13:44;;;;;;;0.15;0.05;;;;;;;14.39;100.00;100500.06;10415423;28;20459;-75
2022/11/08 13:18:49;;;;;;;0.13;0.13;;;;;;;14.40;100.00;100501.81;10435583;28;20492;-75
2022/11/08 13:24:00;;;;;;;0.70;0.38;;;;;;;14.38;100.00;100504.38;10456509;28;20558;-75
2022/11/08 13:29:26;;;;;;;0.40;0.35;;;;;;;14.44;100.00;100498.34;10456015;28;20040;-78
2022/11/08 13:34:43;;;;;;;0.20;0.10;;;;;;;14.41;100.00;100494.03;10415547;28;20072;-76
2022/11/08 13:40:06;;;;;;;0.70;0.17;;;;;;;14.41;100.00;100487.97;10452177;28;20048;-75
2022/11/08 13:46:06;;;;;;;0.00;0.00;;;;;;;14.43;100.00;100481.06;10480935;28;20056;-76
2022/11/08 13:51:32;;;;;;;0.00;0.00;;;;;;;14.46;100.00;100496.66;10458651;28;20420;-75
2022/11/08 13:56:53;;;;;;;0.40;0.40;;;;;;;14.42;100.00;100487.09;10440919;28;20040;-75
2022/11/08 14:01:57;;;;;;;0.52;0.28;;;;;;;14.39;100.00;100484.53;10456136;28;20091;-74
2022/11/08 14:06:58;;;;;;;0.40;0.40;;;;;;;14.24;100.00;100481.03;10456109;28;20040;-76
2022/11/08 14:12:22;;;;;;;0.20;0.20;;;;;;;14.26;100.00;100476.69;10476927;28;20049;-75
2022/11/08 14:24:22;;;;;;;0.77;0.20;;;;;;;14.33;100.00;100475.00;10433220;28;20037;-75
2022/11/08 14:29:24;;;;;;;0.55;0.55;;;;;;;14.39;100.00;100487.13;10447273;28;20056;-76
2022/11/08 14:34:38;;;;;;;0.38;0.30;;;;;;;14.21;100.00;100486.19;10427621;28;20049;-75
2022/11/08 14:39:44;;;;;;;0.25;0.13;;;;;;;14.23;100.00;100484.47;10454328;28;20037;-76
2022/11/08 14:44:46;;;;;;;0.10;0.10;;;;;;;14.06;100.00;100478.34;10440276;28;20053;-76
2022/11/08 14:49:47;;;;;;;0.22;0.22;;;;;;;13.99;100.00;100484.34;10453770;28;20048;-75
2022/11/08 14:55:02;;;;;;;0.35;0.20;;;;;;;13.76;100.00;100492.84;10463313;28;20094;-75
2022/11/08 15:00:14;;;;;;;0.17;0.17;;;;;;;13.79;100.00;100479.94;10461715;28;20033;-75
2022/11/08 15:05:33;;;;;;;0.00;0.00;;;;;;;13.63;100.00;100479.84;10461803;28;20496;-76
2022/11/08 15:10:35;;;;;;;0.10;0.10;;;;;;;13.80;100.00;100474.75;10463081;28;20041;-76
2022/11/08 15:15:37;;;;;;;0.20;0.17;;;;;;;13.78;100.00;100485.97;10465680;28;20045;-76
2022/11/08 15:20:52;;;;;;;0.00;0.00;;;;;;;13.63;100.00;100487.59;10444490;28;20053;-75
2022/11/08 15:25:59;;;;;;;0.00;0.00;;;;;;;13.52;100.00;100499.59;10462188;28;20045;-74
2022/11/08 15:31:03;;;;;;;0.08;0.05;;;;;;;13.37;100.00;100504.59;10460530;28;20484;-75
2022/11/08 15:36:15;;;;;;;0.00;0.00;;;;;;;13.45;100.00;100497.81;10460117;28;20049;-76
2022/11/08 15:41:34;;;;;;;0.00;0.00;;;;;;;13.72;100.00;100497.13;10419076;28;20103;-76
2022/11/08 15:46:37;;;;;;;17.17;2.70;;;;;;;13.86;100.00;100480.81;10446290;28;20033;-76
2022/11/08 15:51:38;;;;;;;0.35;0.28;;;;;;;13.95;100.00;100478.28;10460700;28;20095;-75
2022/11/08 15:56:41;;;;;;;0.60;0.40;;;;;;;14.28;100.00;100463.75;10460837;28;20068;-75
2022/11/08 16:01:53;;;;;;;0.03;0.03;;;;;;;14.26;100.00;100458.56;10459739;28;20044;-75
2022/11/08 16:06:56;;;;;;;2.40;0.20;;;;;;;14.31;100.00;100455.13;10460746;28;20492;-77
2022/11/08 16:11:59;;;;;;;0.60;0.45;;;;;;;14.19;100.00;100446.44;10460591;28;20400;-74
2022/11/08 16:17:01;;;;;;;0.73;0.35;;;;;;;14.05;100.00;100448.09;10460281;28;20049;-74
2022/11/08 16:22:06;;;;;;;0.70;0.40;;;;;;;13.85;100.00;100448.88;10459864;28;20048;-75
2022/11/08 16:27:08;;;;;;;0.10;0.10;;;;;;;13.90;100.00;100446.31;10458230;28;20507;-75
2022/11/08 16:32:10;;;;;;;0.00;0.00;;;;;;;13.92;100.00;100442.03;10459483;28;20461;-74
2022/11/08 16:37:37;;;;;;;0.20;0.17;;;;;;;14.17;100.00;100431.75;10454959;28;20036;-75
2022/11/08 16:42:38;;;;;;;0.00;0.00;;;;;;;13.97;100.00;100424.78;10458976;28;20087;-75
2022/11/08 16:47:42;;;;;;;11.50;0.63;;;;;;;13.76;100.00;100436.78;10457639;28;20045;-75
2022/11/08 16:52:44;;;;;;;0.00;0.00;;;;;;;13.70;100.00;100447.06;10458679;28;20045;-75
2022/11/08 16:57:55;;;;;;;0.63;0.32;;;;;;;13.62;100.00;100454.81;10457358;28;20044;-75
2022/11/08 17:03:52;;;;;;;0.10;0.05;;;;;;;13.79;100.00;100454.03;10473961;28;20053;-76
2022/11/08 17:08:54;;;;;;;0.00;0.00;;;;;;;13.78;100.00;100465.25;10462107;28;20053;-75
2022/11/08 17:13:56;;;;;;;0.10;0.10;;;;;;;13.66;100.00;100471.22;10458242;28;20493;-76
2022/11/08 17:18:58;;;;;;;0.25;0.20;;;;;;;13.62;100.00;100485.88;10457864;28;20114;-75
2022/11/08 17:23:59;;;;;;;0.10;0.10;;;;;;;13.67;100.00;100474.66;10456358;28;20085;-76
2022/11/08 17:29:01;;;;;;;0.30;0.30;;;;;;;13.50;100.00;100483.19;10432016;28;20037;-75
2022/11/08 17:34:03;;;;;;;0.20;0.10;;;;;;;13.43;100.00;100473.66;10455903;28;20514;-75
2022/11/08 17:39:04;;;;;;;0.15;0.15;;;;;;;13.33;100.00;100483.03;10455664;28;20041;-76
2022/11/08 17:44:06;;;;;;;0.30;0.20;;;;;;;13.44;100.00;100484.03;10456730;28;20116;-76
2022/11/08 17:49:33;;;;;;;0.10;0.10;;;;;;;13.39;100.00;100485.72;10456731;28;20051;-75
2022/11/08 17:54:40;;;;;;;0.15;0.13;;;;;;;13.21;100.00;100490.69;10456523;28;20398;-76
2022/11/08 17:59:43;;;;;;;0.10;0.10;;;;;;;13.29;100.00;100492.47;10456479;28;20476;-75
2022/11/08 18:04:45;;;;;;;0.22;0.22;;;;;;;13.31;100.00;100485.59;10456425;28;20040;-76
2022/11/08 18:09:47;;;;;;;2.60;0.30;;;;;;;13.27;100.00;100472.63;10455133;28;20095;-75
2022/11/08 18:14:50;;;;;;;2.38;1.20;;;;;;;13.16;100.00;100472.53;10454818;28;20049;-77
2022/11/08 18:19:51;;;;;;;3.28;0.70;;;;;;;13.10;100.00;100475.09;10461325;28;20049;-75
2022/11/08 18:24:53;;;;;;;0.52;0.35;;;;;;;12.87;100.00;100478.31;10464753;28;20053;-75
2022/11/08 18:29:55;;;;;;;0.10;0.10;;;;;;;13.06;100.00;100478.50;10463963;28;20045;-76
2022/11/08 18:34:56;;;;;;;0.00;0.00;;;;;;;12.84;100.00;100488.66;10446474;28;20041;-76
2022/11/08 18:39:58;;;;;;;0.15;0.13;;;;;;;12.95;100.00;100492.19;10463074;28;20048;-75
2022/11/08 18:45:00;;;;;;;2.25;0.40;;;;;;;12.98;100.00;100486.19;10463922;28;20048;-76
2022/11/08 18:57:02;;;;;;;0.00;0.00;;;;;;;13.36;100.00;100480.47;10434000;28;20479;-75
2022/11/08 19:02:04;;;;;;;0.20;0.10;;;;;;;13.41;100.00;100477.97;10462867;28;20049;-75
2022/11/08 19:07:05;;;;;;;0.00;0.00;;;;;;;13.54;100.00;100479.78;10461536;28;20049;-75
2022/11/08 19:12:07;;;;;;;0.38;0.00;;;;;;;13.47;100.00;100490.94;10475848;28;20119;-75
2022/11/08 19:17:09;;;;;;;0.00;0.00;;;;;;;13.72;100.00;100491.97;10470616;28;20550;-75
2022/11/08 19:22:11;;;;;;;0.20;0.10;;;;;;;13.61;100.00;100488.44;10452469;28;20052;-75
2022/11/08 19:27:13;;;;;;;0.98;0.40;;;;;;;13.74;100.00;100487.66;10461850;28;20500;-75
2022/11/08 19:32:14;;;;;;;0.13;0.13;;;;;;;13.61;100.00;100489.31;10434593;28;20041;-75
2022/11/08 19:37:16;;;;;;;0.00;0.00;;;;;;;13.50;100.00;100490.97;10445829;28;20044;-75
2022/11/08 19:42:18;;;;;;;0.00;0.00;;;;;;;13.57;100.00;100497.91;10459929;28;20132;-75
2022/11/08 19:47:19;;;;;;;0.10;0.10;;;;;;;13.42;100.00;100492.63;10460396;28;20068;-74
2022/11/08 19:52:21;;;;;;;0.00;0.00;;;;;;;13.52;100.00;100494.41;10441233;28;20099;-76
2022/11/08 19:57:22;;;;;;;0.52;0.25;;;;;;;13.51;100.00;100497.88;10445148;28;20037;-74
2022/11/08 20:02:24;;;;;;;0.00;0.00;;;;;;;13.32;100.00;100497.69;10454316;28;20087;-75
2022/11/08 20:07:25;;;;;;;0.60;0.45;;;;;;;13.26;100.00;100492.47;10431129;28;20068;-75
2022/11/08 20:12:30;;;;;;;0.20;0.15;;;;;;;13.21;100.00;100499.34;10461905;28;20055;-75
2022/11/08 20:17:33;;;;;;;0.10;0.10;;;;;;;13.20;100.00;100500.19;10470930;28;20037;-75
2022/11/08 20:22:34;;;;;;;0.00;0.00;;;;;;;13.22;100.00;100506.22;10453496;28;20484;-75
2022/11/08 20:27:36;;;;;;;0.55;0.30;;;;;;;13.33;100.00;100520.13;10448605;28;20029;-76
2022/11/08 20:32:38;;;;;;;0.13;0.10;;;;;;;13.33;100.00;100509.78;10455694;28;20610;-75
2022/11/08 20:38:29;;;;;;;2.97;0.77;;;;;;;13.37;100.00;100507.19;10445204;28;20099;-75
2022/11/08 20:43:31;;;;;;;1.10;0.43;;;;;;;13.41;100.00;100515.03;10431833;28;20041;-76
2022/11/08 20:48:33;;;;;;;0.38;0.28;;;;;;;13.39;100.00;100515.88;10457259;28;20045;-75
2022/11/08 20:53:36;;;;;;;0.32;0.30;;;;;;;13.24;100.00;100519.19;10453418;28;20095;-75
2022/11/08 20:58:37;;;;;;;1.33;0.63;;;;;;;13.38;100.00;100519.28;10456471;28;20087;-75
2022/11/08 21:03:41;;;;;;;0.73;0.52;;;;;;;13.27;100.00;100530.44;10452127;28;20056;-76
2022/11/08 21:08:43;;;;;;;0.38;0.10;;;;;;;13.43;100.00;100522.84;10454758;28;20047;-75
2022/11/08 21:14:05;;;;;;;0.10;0.10;;;;;;;13.56;100.00;100519.47;10442680;28;20048;-75
2022/11/08 21:19:07;;;;;;;0.50;0.25;;;;;;;13.64;100.00;100504.88;10438261;28;20083;-75
2022/11/08 21:24:09;;;;;;;0.20;0.13;;;;;;;13.69;100.00;100509.19;10437851;28;20049;-75
2022/11/08 21:29:11;;;;;;;0.03;0.03;;;;;;;13.68;100.00;100502.28;10453880;28;20090;-76
2022/11/08 21:34:12;;;;;;;0.05;0.03;;;;;;;13.56;100.00;100503.94;10455813;28;20045;-74
2022/11/08 21:39:14;;;;;;;0.10;0.10;;;;;;;13.56;100.00;100510.81;10456815;28;20040;-75
2022/11/08 21:44:16;;;;;;;0.15;0.15;;;;;;;13.61;100.00;100510.00;10441952;28;20041;-75
2022/11/08 21:49:17;;;;;;;0.10;0.10;;;;;;;13.64;100.00;100519.50;10445315;28;20033;-75
2022/11/08 21:54:19;;;;;;;2.63;0.35;;;;;;;13.70;100.00;100527.31;10439851;28;20107;-75
2022/11/08 21:59:21;;;;;;;1.77;0.28;;;;;;;13.80;100.00;100525.69;10432689;28;20539;-74
2022/11/08 22:04:49;;;;;;;0.05;0.05;;;;;;;13.65;100.00;100521.25;10437153;28;20048;-75
2022/11/08 22:09:50;;;;;;;0.43;0.10;;;;;;;13.61;100.00;100530.72;10399858;28;20072;-75
2022/11/08 22:14:54;;;;;;;0.00;0.00;;;;;;;13.57;100.00;100531.56;10442680;28;20037;-75
2022/11/08 22:19:56;;;;;;;0.22;0.20;;;;;;;13.44;100.00;100543.53;10419482;28;20053;-74
2022/11/08 22:25:01;;;;;;;0.28;0.20;;;;;;;13.56;100.00;100540.19;10443401;28;20219;-75
2022/11/08 22:30:03;;;;;;;0.38;0.30;;;;;;;13.57;100.00;100536.75;10455130;28;20059;-75
2022/11/08 22:35:05;;;;;;;0.52;0.38;;;;;;;13.56;100.00;100542.78;10454820;28;20045;-75
2022/11/08 22:40:08;;;;;;;0.00;0.00;;;;;;;13.42;100.00;100541.78;10455767;28;20040;-75
2022/11/08 22:45:11;;;;;;;0.05;0.05;;;;;;;13.43;100.00;100546.97;10454811;28;20056;-76
2022/11/08 22:50:12;;;;;;;0.22;0.22;;;;;;;13.49;100.00;100561.69;10454542;28;20053;-75
2022/11/08 22:55:14;;;;;;;0.00;0.00;;;;;;;13.22;100.00;100557.94;10455700;28;20044;-76
2022/11/08 23:00:20;;;;;;;0.10;0.10;;;;;;;13.20;100.00;100557.09;10455210;28;20061;-76
2022/11/08 23:05:24;;;;;;;2.05;0.10;;;;;;;13.31;100.00;100560.63;10478265;28;20044;-74
2022/11/08 23:10:26;;;;;;;0.43;0.20;;;;;;;13.28;100.00;100555.44;10454735;28;20555;-76
2022/11/08 23:31:33;;;;;;;0.10;0.10;;;;;;;13.30;100.00;100555.44;10436190;28;20045;-75
2022/11/08 23:31:38;;;;;;;1.00;0.35;;;;;;;13.26;100.00;100554.56;10421828;28;20045;-75
2022/11/08 23:36:42;;;;;;;0.20;0.20;;;;;;;13.04;100.00;100558.63;10450322;28;20075;-76
2022/11/08 23:47:03;;;;;;;;;;;;;;;12.94;100.00;100562.84;10460957;28;20415;-75
2022/11/08 23:52:05;;;;;;;0.68;0.38;;;;;;;13.06;100.00;100569.88;10432581;28;20365;-76
2022/11/08 23:57:06;;;;;;;0.30;0.28;;;;;;;13.07;100.00;100557.84;10419179;28;20050;-76
